Atmore, AL

7:41 PM CDT on October 22, 2014 (GMT -0500)
Nokomis | Change Station
CLOSE
Current Station
Personal Weather Station
Location: Atmore, AL
Elevation: 269 ft
Nearby Weather Stations

Elev 269 ft 31.03 °N, 87.59 °W | Updated 11 seconds ago

Clear
Clear
58.3 °F
Feels Like 58.3 °F
N
0.7
Wind Variable Wind from North
Gusts 1.6 mph

Today
High -- | Low -- °F
--% Chance of Precip.
Yesterday
High -- | Low -- °F
Precip. -- in
6:57 AM 6:10 PM
Waning Crescent, 1% visible
Pressure 30.01 in
Visibility 10.0 miles
Clouds Clear
Dew Point 46 °F
Humidity 63%
Rainfall 0.00 in
Snow Depth Not available.
UV 0 out of 12
Pollen 4.10 out of 12
Air Quality Not available.
Flu Activity Sporadic
METAR KNSE 222356Z 36004KT 10SM CLR 18/08 A3004 RMK AO2 SLP160 T01780078 10250 20178 53010 $

More Conditions Fewer Conditions

Pressure 30.01 in
Visibility 10.0 miles
Clouds Clear
Dew Point 46 °F
Humidity 63%
Rainfall 0.00 in
Snow Depth Not available.
UV 0 out of 12
Pollen 4.10 out of 12
Air Quality Not available.
Flu Activity Sporadic
METAR KNSE 222356Z 36004KT 10SM CLR 18/08 A3004 RMK AO2 SLP160 T01780078 10250 20178 53010 $

More Conditions Fewer Conditions

10-Day Weather Forecast

Almanac

Astronomy

Oct. 22, 2014 Rise Set
Actual Time 6:57 AM CDT 6:10 PM CDT
Civil Twilight 6:33 AM CDT 6:35 PM CDT
Nautical Twilight 6:04 AM CDT 7:03 PM CDT
Astronomical Twilight 5:36 AM CDT 7:31 PM CDT
Moon 5:43 AM CDT (10/22) 5:33 PM CDT (10/22)
Length of Visible Light 12h 02m
Length of Day
11h 13m
Tomorrow will be 1m 45s shorter.
Waning Crescent, 1% of the Moon is Illuminated
Today
Waning Crescent
Oct 23
New
Oct 30
First Quarter
Nov 6
Full
Nov 14
Last Quarter

Today's Extremes

State Highs State Lows

Community

WunderPhotos

Upload Photos

1,764,098 photos uploaded!

WunderBlogs® & News

Nearby

Snow Depth

Station Depth Elevation
No new snow has been reported.

Earthquake Activity

City Distance Mag. Time & Date
No recent earthquake activity has been reported nearby.
Minimum magnitude displayed is 2.5.

Coastal Water Temperatures

Place Temperature
Mobile State Docks, AL 75.0 °F
Coast Guard Sector Mobile, AL 75.0 °F

Nearby Weather Stations